createdAt,value
2019-04-04T00:00:14.360Z,8.99
2019-04-04T00:03:21.760Z,9.28
2019-04-04T00:06:38.493Z,9.21
2019-04-04T00:09:45.736Z,9.35
2019-04-04T00:12:51.384Z,9.29
2019-04-04T00:16:08.078Z,9.46
2019-04-04T00:19:24.914Z,9.38
2019-04-04T00:22:41.894Z,9.38
2019-04-04T00:25:47.703Z,9.30
2019-04-04T00:29:04.155Z,9.47
2019-04-04T00:32:21.619Z,9.61
2019-04-04T00:35:31.068Z,9.66
2019-04-04T00:38:38.626Z,9.49
2019-04-04T00:41:55.199Z,9.36
2019-04-04T00:45:02.602Z,9.32
2019-04-04T00:48:19.339Z,9.25
2019-04-04T00:51:38.745Z,9.24
2019-04-04T00:55:00.369Z,9.05
2019-04-04T00:58:07.617Z,8.90
2019-04-04T01:01:26.892Z,9.00
2019-04-04T01:04:42.744Z,8.90
2019-04-04T01:07:50.048Z,8.73
2019-04-04T01:11:06.887Z,8.64
2019-04-04T01:14:15.047Z,8.63
2019-04-04T01:17:22.787Z,8.75
2019-04-04T01:20:30.123Z,8.73
2019-04-04T01:23:47.005Z,8.76
2019-04-04T01:27:04.126Z,8.79
2019-04-04T01:30:13.007Z,8.76
2019-04-04T01:33:20.464Z,8.51
2019-04-04T01:36:28.013Z,8.41
2019-04-04T01:39:34.201Z,8.32
2019-04-04T01:42:51.201Z,8.32
2019-04-04T01:46:07.592Z,8.35
2019-04-04T01:49:14.908Z,8.39
2019-04-04T01:52:31.741Z,8.36
2019-04-04T01:55:48.391Z,8.42
2019-04-04T01:58:55.795Z,8.44
2019-04-04T02:02:12.421Z,8.51
2019-04-04T02:05:19.686Z,8.50
2019-04-04T02:08:26.922Z,8.32
2019-04-04T02:11:43.632Z,8.52
2019-04-04T02:15:00.575Z,8.48
2019-04-04T02:18:17.233Z,8.41
2019-04-04T02:21:33.989Z,8.63
2019-04-04T02:24:41.576Z,8.49
2019-04-04T02:27:58.280Z,8.67
2019-04-04T02:31:21.046Z,8.56
2019-04-04T02:34:28.669Z,8.60
2019-04-04T02:37:36.183Z,8.49
2019-04-04T02:40:52.888Z,8.60
2019-04-04T02:44:09.689Z,8.56
2019-04-04T02:47:18.096Z,8.51
2019-04-04T02:50:25.491Z,8.43
2019-04-04T02:53:32.757Z,8.20
2019-04-04T02:56:40.034Z,8.34
2019-04-04T02:59:47.320Z,8.37
2019-04-04T03:02:54.461Z,8.48
2019-04-04T03:06:11.378Z,8.47
2019-04-04T03:09:28.083Z,8.43
2019-04-04T03:12:35.336Z,8.38
2019-04-04T03:15:52.066Z,8.48
2019-04-04T03:19:11.052Z,8.50
2019-04-04T03:22:28.299Z,8.51
2019-04-04T03:25:35.635Z,8.44
2019-04-04T03:28:43.009Z,8.51
2019-04-04T03:31:50.224Z,8.52
2019-04-04T03:34:57.544Z,8.58
2019-04-04T03:38:04.863Z,8.63
2019-04-04T03:41:21.661Z,8.66
2019-04-04T03:44:38.340Z,8.61
2019-04-04T03:47:45.567Z,8.64
2019-04-04T03:50:56.581Z,8.65
2019-04-04T03:54:22.233Z,8.69
2019-04-04T03:57:26.987Z,8.64
2019-04-04T04:00:34.310Z,8.65
2019-04-04T04:03:41.595Z,8.70
2019-04-04T04:06:49.129Z,8.66
2019-04-04T04:09:59.329Z,8.67
2019-04-04T04:13:05.477Z,8.64
2019-04-04T04:16:12.843Z,8.70
2019-04-04T04:19:31.304Z,8.63
2019-04-04T04:22:50.439Z,8.66
2019-04-04T04:26:09.376Z,8.68
2019-04-04T04:29:32.627Z,8.71
2019-04-04T04:32:49.169Z,8.76
2019-04-04T04:36:09.539Z,8.67
2019-04-04T04:39:24.515Z,8.68
2019-04-04T04:42:31.836Z,8.56
2019-04-04T04:45:37.379Z,8.64
2019-04-04T04:48:54.163Z,8.77
2019-04-04T04:52:12.260Z,8.70
2019-04-04T04:55:29.317Z,8.78
2019-04-04T04:58:36.635Z,8.76
2019-04-04T05:01:53.352Z,8.75
2019-04-04T05:05:10.229Z,8.65
2019-04-04T05:08:17.452Z,8.68
2019-04-04T05:11:34.090Z,8.72
2019-04-04T05:14:40.376Z,8.65
2019-04-04T05:17:47.930Z,8.70
2019-04-04T05:20:57.436Z,8.74
2019-04-04T05:24:04.262Z,8.69
2019-04-04T05:27:11.667Z,8.62
2019-04-04T05:30:20.407Z,8.62
2019-04-04T05:33:29.115Z,8.59
2019-04-04T05:36:46.135Z,8.62
2019-04-04T05:39:55.323Z,8.49
2019-04-04T05:43:14.761Z,8.47
2019-04-04T05:46:30.137Z,8.36
2019-04-04T05:49:38.223Z,8.42
2019-04-04T05:52:46.146Z,8.42
2019-04-04T05:56:06.137Z,8.40
2019-04-04T05:59:23.667Z,8.43
2019-04-04T06:02:41.093Z,8.33
2019-04-04T06:06:01.052Z,8.40
2019-04-04T06:09:16.545Z,8.26
2019-04-04T06:12:25.018Z,8.29
2019-04-04T06:15:42.089Z,8.29
2019-04-04T06:18:58.822Z,8.36
2019-04-04T06:22:06.221Z,8.26
2019-04-04T06:25:22.908Z,8.40
2019-04-04T06:28:39.632Z,8.51
2019-04-04T06:31:46.923Z,8.48
2019-04-04T06:35:03.749Z,8.52
2019-04-04T06:38:22.978Z,8.57
2019-04-04T06:41:39.005Z,8.54
2019-04-04T06:44:46.264Z,8.56
2019-04-04T06:48:02.970Z,8.52
2019-04-04T06:51:12.025Z,8.55
2019-04-04T06:54:28.653Z,8.44
2019-04-04T06:57:36.595Z,8.30
2019-04-04T07:00:48.583Z,8.44
2019-04-04T07:04:03.000Z,8.51
2019-04-04T07:07:19.712Z,8.73
2019-04-04T07:10:27.030Z,8.68
2019-04-04T07:13:42.256Z,8.71
2019-04-04T07:16:41.667Z,8.71
2019-04-04T07:19:47.302Z,8.73
2019-04-04T07:23:03.806Z,8.93
2019-04-04T07:26:20.591Z,8.84
2019-04-04T07:29:37.411Z,8.76
2019-04-04T07:32:54.105Z,8.77
2019-04-04T07:36:01.395Z,8.75
2019-04-04T07:39:18.107Z,8.77
2019-04-04T07:42:25.442Z,8.78
2019-04-04T07:45:32.671Z,8.74
2019-04-04T07:48:51.631Z,8.84
2019-04-04T07:52:07.771Z,8.86
2019-04-04T07:55:24.504Z,8.76
2019-04-04T07:58:41.297Z,8.86
2019-04-04T08:01:51.325Z,8.91
2019-04-04T08:05:07.342Z,8.89
2019-04-04T08:08:23.781Z,8.91
2019-04-04T08:11:30.918Z,9.04
2019-04-04T08:14:39.237Z,9.08
2019-04-04T08:17:46.540Z,9.16
2019-04-04T08:20:53.834Z,9.26
2019-04-04T08:24:01.096Z,9.44
2019-04-04T08:27:08.386Z,9.31
2019-04-04T08:30:15.816Z,9.30
2019-04-04T08:33:23.059Z,9.31
2019-04-04T08:36:39.842Z,9.42
2019-04-04T08:39:47.119Z,9.39
2019-04-04T08:43:03.909Z,9.55
2019-04-04T08:46:20.621Z,9.52
2019-04-04T08:49:28.006Z,9.50
2019-04-04T08:52:45.107Z,9.54
2019-04-04T08:56:01.783Z,9.65
2019-04-04T08:59:18.559Z,9.66
2019-04-04T09:02:25.774Z,9.66
2019-04-04T09:05:42.655Z,9.71
2019-04-04T09:08:49.915Z,9.71
2019-04-04T09:11:57.099Z,9.77
2019-04-04T09:15:15.415Z,9.81
2019-04-04T09:18:22.555Z,9.72
2019-04-04T09:21:29.836Z,9.74
2019-04-04T09:24:46.588Z,9.81
2019-04-04T09:27:53.869Z,9.84
2019-04-04T09:31:10.560Z,9.89
2019-04-04T09:34:17.794Z,9.83
2019-04-04T09:37:25.023Z,9.85
2019-04-04T09:40:32.149Z,9.86
2019-04-04T09:43:39.633Z,9.70
2019-04-04T09:47:05.277Z,9.86
2019-04-04T09:50:14.917Z,9.94
2019-04-04T09:53:31.460Z,10.00
2019-04-04T09:56:38.683Z,9.95
2019-04-04T09:59:44.952Z,10.07
2019-04-04T10:02:52.168Z,10.04
2019-04-04T10:05:59.392Z,10.11
2019-04-04T10:09:15.720Z,10.21
2019-04-04T10:12:25.830Z,10.18
2019-04-04T10:15:42.691Z,10.12
2019-04-04T10:18:49.479Z,10.07
2019-04-04T10:21:56.956Z,10.14
2019-04-04T10:25:04.509Z,10.16
2019-04-04T10:28:23.344Z,10.17
2019-04-04T10:31:39.344Z,10.32
2019-04-04T10:34:46.623Z,10.21
2019-04-04T10:37:53.864Z,10.26
2019-04-04T10:41:10.601Z,10.19
2019-04-04T10:44:27.401Z,10.31
2019-04-04T10:47:44.276Z,10.31
2019-04-04T10:50:51.527Z,10.26
2019-04-04T10:54:08.313Z,10.30
2019-04-04T10:57:15.524Z,10.27
2019-04-04T11:00:22.843Z,10.29
2019-04-04T11:03:39.433Z,10.39
2019-04-04T11:06:56.298Z,10.43
2019-04-04T11:10:13.110Z,10.46
2019-04-04T11:13:33.846Z,10.46
2019-04-04T11:16:48.313Z,10.48
2019-04-04T11:20:05.390Z,10.52
2019-04-04T11:23:22.125Z,10.48
2019-04-04T11:26:29.446Z,10.36
2019-04-04T11:29:46.204Z,10.55
2019-04-04T11:33:02.938Z,10.48
2019-04-04T11:36:10.194Z,10.44
2019-04-04T11:39:17.328Z,10.51
2019-04-04T11:42:24.563Z,10.51
2019-04-04T11:45:31.900Z,10.56
2019-04-04T11:48:48.601Z,10.66
2019-04-04T11:51:55.737Z,10.56
2019-04-04T11:55:03.351Z,10.63
2019-04-04T11:58:19.980Z,10.71
2019-04-04T12:01:38.561Z,10.66
2019-04-04T12:04:57.762Z,10.65
2019-04-04T12:08:14.125Z,10.70
2019-04-04T12:11:22.823Z,10.70
2019-04-04T12:14:30.293Z,10.64
2019-04-04T12:17:46.901Z,10.65
2019-04-04T12:20:54.292Z,10.61
2019-04-04T12:24:10.997Z,10.63
2019-04-04T12:27:27.827Z,10.60
2019-04-04T12:30:44.541Z,10.69
2019-04-04T12:33:52.135Z,10.67
2019-04-04T12:37:08.584Z,10.69
2019-04-04T12:40:20.778Z,10.70
2019-04-04T12:43:34.769Z,10.74
2019-04-04T12:46:42.571Z,10.70
2019-04-04T12:49:50.035Z,10.83
2019-04-04T12:52:57.629Z,10.75
2019-04-04T12:56:14.156Z,10.81
2019-04-04T12:59:21.426Z,10.93
2019-04-04T13:02:28.561Z,10.93
2019-04-04T13:05:35.806Z,11.07
2019-04-04T13:08:43.112Z,11.50
2019-04-04T13:11:59.858Z,12.70
2019-04-04T13:15:16.837Z,13.72
2019-04-04T13:18:33.498Z,14.04
2019-04-04T13:21:50.489Z,14.27
2019-04-04T13:25:07.822Z,14.31
2019-04-04T13:28:15.033Z,14.03
2019-04-04T13:31:22.341Z,13.69
2019-04-04T13:34:29.487Z,13.57
2019-04-04T13:37:36.832Z,14.06
2019-04-04T13:40:45.725Z,14.14
2019-04-04T13:43:53.720Z,14.62
2019-04-04T13:47:02.751Z,14.00
2019-04-04T13:50:12.271Z,14.16
2019-04-04T13:53:28.129Z,15.08
2019-04-04T13:56:44.826Z,15.27
2019-04-04T13:59:51.985Z,15.30
2019-04-04T14:02:59.317Z,15.79
2019-04-04T14:06:16.065Z,15.57
2019-04-04T14:09:23.404Z,15.96
2019-04-04T14:12:40.051Z,16.62
2019-04-04T14:15:47.284Z,16.20
2019-04-04T14:19:04.281Z,16.69
2019-04-04T14:22:20.999Z,16.72
2019-04-04T14:25:37.733Z,16.75
2019-04-04T14:28:45.046Z,17.23
2019-04-04T14:32:01.835Z,17.05
2019-04-04T14:35:24.581Z,17.47
2019-04-04T14:38:31.741Z,17.10
2019-04-04T14:41:38.953Z,17.00
2019-04-04T14:44:46.317Z,17.17
2019-04-04T14:48:03.306Z,17.40
2019-04-04T14:51:19.959Z,17.37
2019-04-04T14:54:39.374Z,17.34
2019-04-04T14:57:58.705Z,17.29
2019-04-04T15:01:05.618Z,16.99
2019-04-04T15:04:12.776Z,17.18
2019-04-04T15:07:20.148Z,16.59
2019-04-04T15:10:27.393Z,16.52
2019-04-04T15:13:34.639Z,16.68
2019-04-04T15:16:42.030Z,16.64
2019-04-04T15:19:58.692Z,16.89
2019-04-04T15:23:06.018Z,16.92
2019-04-04T15:26:22.711Z,16.88
2019-04-04T15:29:29.877Z,16.89
2019-04-04T15:32:37.063Z,16.91
2019-04-04T15:35:44.261Z,16.67
2019-04-04T15:38:51.413Z,16.41
2019-04-04T15:41:59.030Z,16.70
2019-04-04T15:45:15.614Z,16.61
2019-04-04T15:48:22.950Z,16.18
2019-04-04T15:51:39.714Z,15.89
2019-04-04T15:54:56.431Z,16.06
2019-04-04T15:58:03.676Z,15.82
2019-04-04T16:01:20.516Z,15.79
2019-04-04T16:04:37.294Z,15.70
2019-04-04T16:07:54.212Z,15.35
2019-04-04T16:11:10.921Z,15.30
2019-04-04T16:14:27.652Z,15.05
2019-04-04T16:17:34.860Z,14.92
2019-04-04T16:20:42.209Z,14.86
2019-04-04T16:23:58.948Z,14.81
2019-04-04T16:27:15.787Z,14.71
2019-04-04T16:30:23.100Z,14.65
2019-04-04T16:33:39.693Z,14.52
2019-04-04T16:36:46.988Z,14.30
2019-04-04T16:40:09.308Z,14.42
2019-04-04T16:43:22.600Z,14.25
2019-04-04T16:46:29.910Z,14.11
2019-04-04T16:49:46.651Z,13.92
2019-04-04T16:53:03.363Z,13.85
2019-04-04T16:56:10.631Z,13.82
2019-04-04T16:59:17.781Z,13.78
2019-04-04T17:02:34.836Z,13.65
2019-04-04T17:05:51.465Z,13.46
2019-04-04T17:09:08.655Z,13.60
2019-04-04T17:12:25.302Z,13.58
2019-04-04T17:15:41.874Z,13.61
2019-04-04T17:18:49.358Z,13.44
2019-04-04T17:22:06.356Z,13.37
2019-04-04T17:25:23.527Z,13.37
2019-04-04T17:28:40.025Z,13.36
2019-04-04T17:31:57.195Z,13.25
2019-04-04T17:35:06.363Z,12.96
2019-04-04T17:38:13.908Z,12.66
2019-04-04T17:41:21.837Z,12.67
2019-04-04T17:44:39.242Z,12.75
2019-04-04T17:47:56.144Z,12.82
2019-04-04T17:51:04.178Z,12.76
2019-04-04T17:54:12.058Z,12.32
2019-04-04T17:57:29.508Z,12.35
2019-04-04T18:00:37.070Z,12.48
2019-04-04T18:03:44.471Z,12.38
2019-04-04T18:06:52.193Z,12.19
2019-04-04T18:09:59.681Z,11.88
2019-04-04T18:13:07.385Z,11.87
2019-04-04T18:16:14.983Z,11.90
2019-04-04T18:19:32.010Z,11.91
2019-04-04T18:22:48.696Z,11.79
2019-04-04T18:26:05.973Z,11.74
2019-04-04T18:29:13.781Z,11.33
2019-04-04T18:32:21.483Z,11.57
2019-04-04T18:35:38.359Z,11.41
2019-04-04T18:38:55.210Z,11.37
2019-04-04T18:42:11.904Z,11.21
2019-04-04T18:45:28.799Z,11.08
2019-04-04T18:48:45.310Z,11.15
2019-04-04T18:52:01.913Z,11.01
2019-04-04T18:55:20.286Z,11.12
2019-04-04T18:58:37.335Z,11.02
2019-04-04T19:01:54.104Z,10.89
2019-04-04T19:05:11.264Z,10.82
2019-04-04T19:08:27.806Z,10.71
2019-04-04T19:11:44.566Z,10.66
2019-04-04T19:15:01.324Z,10.65
2019-04-04T19:18:18.041Z,10.58
2019-04-04T19:21:35.130Z,10.47
2019-04-04T19:24:51.754Z,10.38
2019-04-04T19:28:08.423Z,10.39
2019-04-04T19:31:15.666Z,10.36
2019-04-04T19:34:32.462Z,10.39
2019-04-04T19:37:39.772Z,10.41
2019-04-04T19:41:02.436Z,10.33
2019-04-04T19:44:19.245Z,10.24
2019-04-04T19:47:26.523Z,10.13
2019-04-04T19:50:43.181Z,10.18
2019-04-04T19:53:59.912Z,10.14
2019-04-04T19:57:17.125Z,10.29
2019-04-04T20:00:33.532Z,10.05
2019-04-04T20:03:40.839Z,10.01
2019-04-04T20:06:57.644Z,10.01
2019-04-04T20:10:14.455Z,10.00
2019-04-04T20:13:31.543Z,10.00
2019-04-04T20:16:38.880Z,9.85
2019-04-04T20:19:46.000Z,9.90
2019-04-04T20:22:53.230Z,9.80
2019-04-04T20:26:09.472Z,9.80
2019-04-04T20:29:16.727Z,9.68
2019-04-04T20:32:24.032Z,9.85
2019-04-04T20:35:40.795Z,9.76
2019-04-04T20:38:47.991Z,9.63
2019-04-04T20:42:04.822Z,9.70
2019-04-04T20:45:21.584Z,9.59
2019-04-04T20:48:38.305Z,9.45
2019-04-04T20:51:55.247Z,9.57
2019-04-04T20:55:11.960Z,9.68
2019-04-04T20:58:19.094Z,9.47
2019-04-04T21:01:26.367Z,9.53
2019-04-04T21:04:33.504Z,9.52
2019-04-04T21:07:40.639Z,9.52
2019-04-04T21:10:47.938Z,9.45
2019-04-04T21:13:56.250Z,9.39
2019-04-04T21:17:17.382Z,9.40
2019-04-04T21:20:34.151Z,9.29
2019-04-04T21:23:51.080Z,9.37
2019-04-04T21:27:07.721Z,9.30
2019-04-04T21:30:14.913Z,9.18
2019-04-04T21:33:31.624Z,9.25
2019-04-04T21:36:38.807Z,9.17
2019-04-04T21:39:46.100Z,9.18
2019-04-04T21:42:53.405Z,9.13
2019-04-04T21:46:10.139Z,9.09
2019-04-04T21:49:26.934Z,9.13
2019-04-04T21:52:49.655Z,9.01
2019-04-04T21:56:06.499Z,9.16
2019-04-04T21:59:13.840Z,9.05
2019-04-04T22:02:30.585Z,9.11
2019-04-04T22:05:47.319Z,9.02
2019-04-04T22:08:54.551Z,8.97
2019-04-04T22:12:01.689Z,8.89
2019-04-04T22:15:10.074Z,8.95
2019-04-04T22:18:17.383Z,9.01
2019-04-04T22:21:24.683Z,8.88
2019-04-04T22:24:31.912Z,8.85
2019-04-04T22:27:39.134Z,8.71
2019-04-04T22:30:46.475Z,8.60
2019-04-04T22:33:53.600Z,8.65
2019-04-04T22:36:59.127Z,8.53
2019-04-04T22:40:06.536Z,8.55
2019-04-04T22:43:14.713Z,8.62
2019-04-04T22:46:21.843Z,8.42
2019-04-04T22:49:29.036Z,8.24
2019-04-04T22:52:36.307Z,8.21
2019-04-04T22:55:43.873Z,8.14
2019-04-04T22:58:51.194Z,8.09
2019-04-04T23:01:58.537Z,8.18
2019-04-04T23:05:06.747Z,8.29
2019-04-04T23:08:15.184Z,8.14
2019-04-04T23:11:22.538Z,8.19
2019-04-04T23:14:29.693Z,8.28
2019-04-04T23:17:36.906Z,8.24
2019-04-04T23:20:44.140Z,8.28
2019-04-04T23:23:51.662Z,8.21
2019-04-04T23:26:58.788Z,8.22
2019-04-04T23:30:07.724Z,8.21
2019-04-04T23:33:15.052Z,8.23
2019-04-04T23:36:34.373Z,8.18
2019-04-04T23:39:40.955Z,8.23
2019-04-04T23:42:48.261Z,8.24
2019-04-04T23:46:05.073Z,8.27
2019-04-04T23:49:21.808Z,8.30
2019-04-04T23:52:28.958Z,8.25
2019-04-04T23:55:36.376Z,8.33
2019-04-04T23:58:52.982Z,8.36
